Latest Weather Observations for Braidwood

IDN60901

Issued at 3:21 pm EDT Thursday 2 April 2015 (issued every 10 minutes, with the page automatically refreshed every 10 minutes)

About weather observations | Map of Canberra area stations | Latest observations for Canberra area | Other Formats
Station Details ID: 069132 Name: BRAIDWOOD RACECOURSE AWS Lat: -35.43 Lon: 149.78 Height: 665.2 m
Data from the previous 72 hours. | See also: Recent months at Braidwood
Date/Time
EDT
Tmp

°C
App
Tmp
°C
Dew
Point
°C
Rel
Hum
%
Delta-T

°C
Wind Press
QNH
hPa
Press
MSL
hPa
Rain
since
9 am
mm
Dir
 
Spd
km/h
Gust
km/h
Spd
kts
Gust
kts
02/03:00pm 21.2 19.0 10.7 51 5.9 WNW 13 22 7 12 1018.5 1017.6 0.0
02/02:30pm 21.3 18.3 10.8 51 5.9 NW 17 28 9 15 1018.5 1017.6 0.0
02/02:00pm 21.6 18.0 10.4 49 6.3 NW 20 33 11 18 1018.4 1017.5 0.0
02/01:30pm 22.1 18.1 10.6 48 6.5 NW 22 37 12 20 1018.4 1017.5 0.0
02/01:00pm 22.1 18.7 10.6 48 6.5 NW 19 35 10 19 1018.5 1017.6 0.0
02/12:30pm 22.1 18.6 10.9 49 6.4 NW 20 30 11 16 1018.8 1018.0 0.0
02/12:00pm 21.8 19.1 11.8 53 5.8 NW 17 28 9 15 1019.1 1018.2 0.0
02/11:30am 22.0 19.4 12.0 53 5.8 NW 17 33 9 18 1019.1 1018.2 0.0
02/11:00am 20.5 17.1 11.2 55 5.3 NW 20 33 11 18 1019.4 1018.5 0.0
02/10:30am 20.8 17.6 11.2 54 5.5 NW 19 37 10 20 1019.3 1018.4 0.0
02/10:00am 19.7 17.2 11.2 58 4.8 NW 15 30 8 16 1019.5 1018.6 0.0
02/09:30am 18.7 17.3 12.2 66 3.7 NNW 11 22 6 12 1019.6 1018.7 0.0
02/09:00am 14.7 14.9 11.8 83 1.6 N 2 6 1 3 1019.5 1018.6 0.0
02/08:30am 14.1 14.6 11.6 85 1.4 CALM 0 2 0 1 1019.2 1018.3 0.0
02/08:00am 14.1 13.9 11.8 86 1.3 N 4 6 2 3 1018.6 1017.7 0.0
02/07:30am 13.0 13.5 11.6 91 0.8 CALM 0 0 0 0 1018.4 1017.5 0.0
02/07:00am 11.7 11.5 10.3 91 0.7 NNW 2 6 1 3 1018.3 1017.4 0.0
02/06:30am 11.3 11.4 10.2 93 0.6 CALM 0 0 0 0 1018.1 1017.2 0.0
02/06:00am 11.2 11.3 10.3 94 0.5 CALM 0 0 0 0 1018.0 1017.1 0.0
02/05:30am 11.8 12.1 10.9 94 0.5 CALM 0 0 0 0 1018.0 1017.1 0.0
02/05:00am 12.0 12.3 10.9 93 0.6 CALM 0 0 0 0 1017.9 1017.0 0.0
02/04:30am 12.6 13.1 11.7 94 0.5 CALM 0 0 0 0 1018.0 1017.1 0.0
02/04:00am 12.0 12.4 11.1 94 0.5 CALM 0 0 0 0 1018.0 1017.1 0.0
02/03:30am 12.1 12.4 11.0 93 0.6 CALM 0 0 0 0 1018.3 1017.4 0.0
02/03:00am 12.5 12.9 11.4 93 0.6 CALM 0 0 0 0 1018.6 1017.7 0.0
02/02:30am 12.9 13.4 11.6 92 0.7 CALM 0 2 0 1 1019.1 1018.2 0.0
02/02:00am 13.2 13.8 11.9 92 0.7 CALM 0 0 0 0 1019.3 1018.4 0.0
02/01:30am 13.6 13.9 12.3 92 0.7 N 2 6 1 3 1019.6 1018.7 0.0
02/01:00am 13.7 14.1 12.4 92 0.7 N 2 6 1 3 1019.8 1018.9 0.0
02/12:30am 13.8 14.5 12.2 90 0.9 CALM 0 0 0 0 1020.1 1019.3 0.0
02/12:00am 14.3 15.2 12.9 91 0.8 CALM 0 0 0 0 1020.4 1019.6 0.0
 
Date/Time
EDT
Tmp

°C
App
Tmp
°C
Dew
Point
°C
Rel
Hum
%
Delta-T

°C
Wind Press
QNH
hPa
Press
MSL
hPa
Rain
since
9 am
mm
Dir
 
Spd
km/h
Gust
km/h
Spd
kts
Gust
kts
01/11:30pm 14.2 15.0 12.6 90 0.9 CALM 0 0 0 0 1020.7 1019.8 0.0
01/11:00pm 14.2 15.0 12.4 89 1.0 CALM 0 0 0 0 1021.0 1020.1 0.0
01/10:30pm 14.6 15.5 12.8 89 1.0 CALM 0 0 0 0 1021.0 1020.1 0.0
01/10:00pm 14.1 14.7 11.8 86 1.3 CALM 0 0 0 0 1021.0 1020.1 0.0
01/09:30pm 14.9 15.7 12.4 85 1.4 CALM 0 0 0 0 1020.9 1020.0 0.0
01/09:00pm 14.9 15.5 11.9 82 1.7 CALM 0 0 0 0 1020.8 1019.9 0.0
01/08:30pm 16.1 16.4 12.3 78 2.2 N 2 6 1 3 1020.6 1019.7 0.0
01/08:00pm 17.0 16.9 12.1 73 2.8 N 4 7 2 4 1020.2 1019.4 0.0
01/07:30pm 17.7 17.9 11.7 68 3.4 N 2 6 1 3 1020.1 1019.3 0.0
01/07:00pm 19.2 19.0 11.7 62 4.3 N 4 9 2 5 1020.0 1019.1 0.0
01/06:30pm 21.1 21.3 11.7 55 5.4 N 2 7 1 4 1019.7 1018.8 0.0
01/06:00pm 23.2 22.8 12.5 51 6.3 N 6 13 3 7 1019.7 1018.8 0.0
01/05:30pm 23.2 22.8 12.5 51 6.3 NNE 6 11 3 6 1019.6 1018.7 0.0
01/05:00pm 23.7 23.1 11.7 47 7.0 N 6 15 3 8 1019.7 1018.8 0.0
01/04:30pm 25.0 24.4 12.2 44 7.5 NNE 7 19 4 10 1019.8 1018.9 0.0
01/04:00pm 25.0 24.0 12.2 44 7.5 NNE 9 19 5 10 1020.1 1019.3 0.0
01/03:30pm 23.5 22.8 11.9 48 6.8 N 7 19 4 10 1020.6 1019.7 0.0
01/03:00pm 23.2 22.1 11.9 49 6.6 NNE 9 20 5 11 1020.9 1020.0 0.0
01/02:30pm 24.2 23.8 13.1 50 6.6 N 7 17 4 9 1021.4 1020.5 0.0
01/02:00pm 23.7 22.7 12.4 49 6.6 NNW 9 20 5 11 1021.9 1021.1 0.0
01/01:30pm 21.8 21.7 13.2 58 5.1 N 6 11 3 6 1022.6 1021.7 0.0
01/01:00pm 21.3 20.3 12.4 57 5.2 NNE 9 20 5 11 1023.2 1022.4 0.0
01/12:30pm 20.7 20.6 13.9 65 4.1 NNE 7 17 4 9 1023.9 1023.0 0.0
01/12:00pm 19.1 18.5 13.5 70 3.3 NNE 9 17 5 9 1024.7 1023.9 0.0
01/11:30am 17.7 17.4 13.4 76 2.5 NNE 7 13 4 7 1025.0 1024.2 0.0
01/11:00am 17.4 16.9 13.7 79 2.2 N 9 17 5 9 1025.5 1024.7 0.0
01/10:30am 16.0 15.8 13.7 86 1.3 N 7 13 4 7 1025.9 1024.0 0.0
01/10:00am 14.4 14.5 13.9 97 0.3 N 6 9 3 5 1026.2 1024.3 0.0
01/09:30am 12.9 13.7 12.4 97 0.3 CALM 0 0 0 0 1026.6 1024.8 0.0
01/09:00am 11.4 11.7 10.9 97 0.3 CALM 0 0 0 0 1026.5 1024.6 0.0
01/08:30am 9.5 9.3 9.0 97 0.3 CALM 0 0 0 0 1026.3 1024.4 0.0
01/08:00am 7.8 7.2 7.4 97 0.2 CALM 0 2 0 1 1026.1 1024.2 0.0
01/07:30am 7.0 6.2 6.6 97 0.2 CALM 0 6 0 3 1025.8 1023.9 0.0
01/07:00am 5.2 2.9 4.6 96 0.3 NNW 6 7 3 4 1025.8 1023.9 0.0
01/06:30am 5.4 4.2 4.8 96 0.3 CALM 0 0 0 0 1025.5 1023.6 0.0
01/06:00am 5.5 4.4 4.9 96 0.3 CALM 0 0 0 0 1025.5 1023.6 0.0
01/05:30am 5.2 4.0 4.6 96 0.3 CALM 0 0 0 0 1025.6 1023.7 0.0
01/05:00am 5.2 4.0 4.6 96 0.3 CALM 0 0 0 0 1025.8 1023.9 0.0
01/04:30am 5.2 4.0 4.6 96 0.3 CALM 0 0 0 0 1025.9 1024.0 0.0
01/04:00am 5.6 4.5 5.0 96 0.3 CALM 0 0 0 0 1026.2 1024.3 0.0
01/03:30am 5.6 4.5 4.9 95 0.3 CALM 0 0 0 0 1026.4 1024.5 0.0
01/03:00am 5.8 4.7 5.1 95 0.3 CALM 0 0 0 0 1026.6 1024.8 0.0
01/02:30am 6.3 5.3 5.7 96 0.3 CALM 0 0 0 0 1027.0 1025.1 0.0
01/02:00am 6.6 5.7 6.0 96 0.3 CALM 0 0 0 0 1027.3 1025.4 0.0
01/01:30am 6.9 6.0 6.2 95 0.3 CALM 0 0 0 0 1027.4 1025.5 0.0
01/01:00am 6.8 5.9 6.1 95 0.3 CALM 0 0 0 0 1027.3 1025.4 0.0
01/12:30am 8.2 7.6 7.4 95 0.4 CALM 0 0 0 0 1027.5 1025.6 0.0
01/12:00am 8.4 7.8 7.6 95 0.4 CALM 0 0 0 0 1027.7 1025.8 0.0
 
Date/Time
EDT
Tmp

°C
App
Tmp
°C
Dew
Point
°C
Rel
Hum
%
Delta-T

°C
Wind Press
QNH
hPa
Press
MSL
hPa
Rain
since
9 am
mm
Dir
 
Spd
km/h
Gust
km/h
Spd
kts
Gust
kts
31/11:30pm 9.5 9.2 8.7 95 0.4 CALM 0 0 0 0 1027.9 1026.1 0.0
31/11:00pm 9.8 9.6 9.0 95 0.4 CALM 0 0 0 0 1028.0 1026.2 0.0
31/10:30pm 10.9 11.0 10.1 95 0.4 CALM 0 0 0 0 1028.2 1026.4 0.0
31/10:00pm 12.1 12.2 11.5 96 0.3 SSW 2 4 1 2 1028.2 1026.4 0.0
31/09:30pm 11.6 11.8 10.7 94 0.5 CALM 0 0 0 0 1027.7 1025.8 0.0
31/09:00pm 12.1 12.3 10.7 91 0.7 CALM 0 0 0 0 1027.9 1026.1 0.0
31/08:30pm 12.8 13.2 11.4 91 0.8 CALM 0 0 0 0 1027.6 1025.7 0.0
31/08:00pm 13.4 12.7 11.3 87 1.1 E 6 7 3 4 1027.2 1025.3 0.0
31/07:30pm 14.6 13.8 11.6 82 1.7 E 7 11 4 6 1026.8 1025.0 0.0
31/07:00pm 15.8 14.6 11.6 76 2.3 E 9 13 5 7 1026.3 1024.4 0.0
31/06:30pm 17.9 16.1 12.1 69 3.3 E 13 17 7 9 1026.1 1024.2 0.0
31/06:00pm 19.0 16.7 11.6 62 4.2 E 15 19 8 10 1025.9 1024.0 0.0
31/05:30pm 19.3 17.4 10.6 57 4.9 E 11 15 6 8 1025.9 1024.0 0.0
31/05:00pm 20.3 17.7 10.7 54 5.4 E 15 22 8 12 1025.8 1023.9 0.0
31/04:30pm 21.2 18.7 11.0 52 5.8 E 15 24 8 13 1026.0 1024.1 0.0
31/04:00pm 20.9 18.2 10.4 51 5.9 ENE 15 22 8 12 1026.1 1024.2 0.0
31/03:30pm 21.7 19.0 10.5 49 6.3 ESE 15 22 8 12 1026.5 1024.6 0.0
31/03:00pm 21.4 19.4 10.3 49 6.2 ESE 11 19 6 10 1026.7 1024.9 0.0
31/02:30pm 20.9 18.3 10.7 52 5.8 SE 15 20 8 11 1027.1 1025.2 0.0
31/02:00pm 21.2 19.5 11.2 53 5.7 E 11 17 6 9 1027.3 1025.4 0.0
31/01:30pm 20.3 18.9 8.9 48 6.2 ENE 6 11 3 6 1027.7 1025.8 0.0
31/01:00pm 20.3 18.8 8.6 47 6.3 NE 6 13 3 7 1028.1 1026.3 0.0
31/12:30pm 20.3 18.7 10.1 52 5.7 ESE 9 17 5 9 1028.4 1026.6 0.0
31/12:00pm 20.3 19.5 9.5 50 5.9 NE 4 9 2 5 1029.0 1027.1 0.0
31/11:30am 19.5 18.3 9.7 53 5.4 S 6 11 3 6 1029.2 1027.3 0.0
31/11:00am 18.3 16.5 9.6 57 4.7 SSE 9 15 5 8 1029.4 1027.6 0.0
31/10:30am 17.0 14.8 9.2 60 4.2 SE 11 19 6 10 1029.3 1027.5 0.0
31/10:00am 15.9 14.4 10.7 71 2.8 S 9 15 5 8 1029.3 1027.5 0.0
31/09:30am 14.2 14.6 11.2 82 1.6 CALM 0 0 0 0 1029.0 1027.1 0.0
31/09:00am 11.6 11.5 9.5 87 1.1 CALM 0 0 0 0 1028.8 1026.9 0.0
31/08:30am 9.9 9.8 9.3 96 0.3 CALM 0 0 0 0 1028.4 1026.6 0.0
31/08:00am 8.1 7.5 7.5 96 0.3 CALM 0 0 0 0 1028.2 1026.4 0.0
31/07:30am 6.3 5.3 5.7 96 0.3 CALM 0 0 0 0 1027.9 1026.1 0.0
31/07:00am 6.6 5.7 6.0 96 0.3 CALM 0 0 0 0 1027.6 1025.7 0.0
31/06:30am 6.5 5.6 5.9 96 0.3 CALM 0 0 0 0 1027.3 1025.4 0.0
31/06:00am 6.1 5.1 5.5 96 0.3 CALM 0 0 0 0 1027.1 1025.2 0.0
31/05:30am 5.9 4.8 5.2 95 0.3 CALM 0 0 0 0 1026.8 1025.0 0.0
31/05:00am 6.3 5.3 5.6 95 0.3 CALM 0 0 0 0 1026.6 1024.8 0.0
31/04:30am 6.3 5.3 5.6 95 0.3 CALM 0 0 0 0 1026.6 1024.8 0.0
31/04:00am 7.1 6.3 6.4 95 0.3 CALM 0 0 0 0 1027.1 1025.2 0.0
31/03:30am 7.5 6.7 6.3 92 0.6 CALM 0 0 0 0 1027.2 1025.3 0.0
31/03:00am 8.1 7.4 7.0 93 0.5 CALM 0 0 0 0 1027.3 1025.4 0.0
31/02:30am 8.9 8.4 8.0 94 0.4 CALM 0 0 0 0 1027.4 1025.5 0.0
31/02:00am 8.6 8.0 7.4 92 0.6 CALM 0 0 0 0 1027.5 1025.6 0.0
31/01:30am 9.8 9.5 8.6 92 0.6 CALM 0 0 0 0 1027.5 1025.6 0.0
31/01:00am 10.3 10.1 9.2 93 0.6 CALM 0 0 0 0 1027.5 1025.6 0.0
31/12:30am 10.6 10.5 9.4 92 0.6 CALM 0 0 0 0 1027.6 1025.7 0.0
31/12:00am 10.4 10.3 9.3 93 0.6 CALM 0 2 0 1 1027.8 1025.9 0.0
 
Date/Time
EDT
Tmp

°C
App
Tmp
°C
Dew
Point
°C
Rel
Hum
%
Delta-T

°C
Wind Press
QNH
hPa
Press
MSL
hPa
Rain
since
9 am
mm
Dir
 
Spd
km/h
Gust
km/h
Spd
kts
Gust
kts
30/11:30pm 10.2 10.0 9.1 93 0.6 CALM 0 0 0 0 1027.7 1025.8 0.0
30/11:00pm 10.3 10.2 9.4 94 0.5 CALM 0 0 0 0 1027.8 1025.9 0.0
30/10:30pm 10.4 10.1 8.8 90 0.8 CALM 0 0 0 0 1027.6 1025.7 0.0
30/10:00pm 11.8 11.1 10.2 90 0.8 NNW 4 6 2 3 1027.5 1025.6 0.0
30/09:30pm 12.9 12.9 11.0 88 1.0 SE 2 4 1 2 1027.4 1025.5 0.0
30/09:00pm 13.0 12.5 10.7 86 1.2 SE 4 6 2 3 1027.3 1025.4 0.0
30/08:30pm 13.6 12.8 11.1 85 1.4 SE 6 7 3 4 1027.1 1025.2 0.0
30/08:00pm 13.8 12.9 10.8 82 1.6 SSE 6 7 3 4 1026.6 1024.8 0.0
30/07:30pm 14.3 14.2 10.9 80 1.9 SE 2 4 1 2 1026.2 1024.3 0.0
30/07:00pm 15.3 14.9 11.1 76 2.3 SSE 4 6 2 3 1025.8 1023.9 0.0
30/06:30pm 16.6 15.9 10.0 65 3.6 ESE 4 7 2 4 1025.4 1023.5 0.0
30/06:00pm 17.4 16.2 9.6 60 4.2 NE 6 9 3 5 1024.9 1023.0 0.0
30/05:30pm 17.7 16.1 10.1 61 4.2 ESE 9 13 5 7 1024.8 1022.9 0.0
30/05:00pm 18.8 17.7 10.1 57 4.8 SE 6 13 3 7 1024.4 1022.5 0.0
30/04:30pm 19.2 16.5 3.8 36 7.6 WSW 7 9 4 5 1024.1 1022.2 0.0
30/04:00pm 19.5 16.3 3.2 34 7.9 W 9 13 5 7 1024.0 1022.1 0.0
30/03:30pm 19.5 17.0 4.8 38 7.4 WSW 7 13 4 7 1024.2 1022.3 0.0

Latest Capital City Observations: Canberra | Sydney | Melbourne | Brisbane | Adelaide | Perth | Hobart | Darwin

Other Formats:

Comma delimited format used in spreadsheet applications
http://www.bom.gov.au/fwo/IDN60903/IDN60903.94927.axf

JavaScript Object Notation format (JSON) in row-major order
http://www.bom.gov.au/fwo/IDN60903/IDN60903.94927.json